sensor_id;sensor_type;location;lat;lon;timestamp;P1;durP1;ratioP1;P2;durP2;ratioP2
55710;SDS011;41612;51.994;5.880;2023-09-18T00:00:43;9.13;;;7.85;;
55710;SDS011;41612;51.994;5.880;2023-09-18T00:03:41;8.52;;;6.63;;
55710;SDS011;41612;51.994;5.880;2023-09-18T00:06:07;7.97;;;6.78;;
55710;SDS011;41612;51.994;5.880;2023-09-18T00:08:38;9.63;;;7.10;;
55710;SDS011;41612;51.994;5.880;2023-09-18T00:11:07;8.73;;;7.82;;
55710;SDS011;41612;51.994;5.880;2023-09-18T00:14:01;8.18;;;6.05;;
55710;SDS011;41612;51.994;5.880;2023-09-18T00:16:31;11.35;;;9.00;;
55710;SDS011;41612;51.994;5.880;2023-09-18T00:18:58;8.75;;;7.90;;
55710;SDS011;41612;51.994;5.880;2023-09-18T00:21:32;11.05;;;7.88;;
55710;SDS011;41612;51.994;5.880;2023-09-18T00:24:03;11.57;;;8.30;;
55710;SDS011;41612;51.994;5.880;2023-09-18T00:26:42;6.82;;;6.13;;
55710;SDS011;41612;51.994;5.880;2023-09-18T00:29:09;11.68;;;8.68;;
55710;SDS011;41612;51.994;5.880;2023-09-18T00:31:35;14.70;;;9.85;;
55710;SDS011;41612;51.994;5.880;2023-09-18T00:34:09;11.00;;;8.93;;
55710;SDS011;41612;51.994;5.880;2023-09-18T00:36:35;8.95;;;7.93;;
55710;SDS011;41612;51.994;5.880;2023-09-18T00:39:07;11.52;;;9.30;;
55710;SDS011;41612;51.994;5.880;2023-09-18T00:41:33;15.57;;;10.93;;
55710;SDS011;41612;51.994;5.880;2023-09-18T00:44:06;12.70;;;8.45;;
55710;SDS011;41612;51.994;5.880;2023-09-18T00:46:35;11.70;;;10.02;;
55710;SDS011;41612;51.994;5.880;2023-09-18T00:49:03;12.23;;;8.52;;
55710;SDS011;41612;51.994;5.880;2023-09-18T00:51:35;49.28;;;11.80;;
55710;SDS011;41612;51.994;5.880;2023-09-18T00:54:01;9.43;;;7.35;;
55710;SDS011;41612;51.994;5.880;2023-09-18T00:56:32;8.43;;;6.72;;
55710;SDS011;41612;51.994;5.880;2023-09-18T00:59:03;6.75;;;6.05;;
55710;SDS011;41612;51.994;5.880;2023-09-18T01:01:34;9.50;;;7.32;;
55710;SDS011;41612;51.994;5.880;2023-09-18T01:04:17;10.00;;;8.02;;
55710;SDS011;41612;51.994;5.880;2023-09-18T01:06:46;11.02;;;8.63;;
55710;SDS011;41612;51.994;5.880;2023-09-18T01:09:18;12.10;;;10.02;;
55710;SDS011;41612;51.994;5.880;2023-09-18T01:15:01;7.97;;;7.13;;
55710;SDS011;41612;51.994;5.880;2023-09-18T01:17:34;11.57;;;9.32;;
55710;SDS011;41612;51.994;5.880;2023-09-18T01:20:08;11.00;;;8.43;;
55710;SDS011;41612;51.994;5.880;2023-09-18T01:22:35;11.38;;;7.63;;
55710;SDS011;41612;51.994;5.880;2023-09-18T01:25:03;11.63;;;8.00;;
55710;SDS011;41612;51.994;5.880;2023-09-18T01:27:33;10.98;;;9.88;;
55710;SDS011;41612;51.994;5.880;2023-09-18T01:29:59;9.55;;;6.65;;
55710;SDS011;41612;51.994;5.880;2023-09-18T01:32:26;7.63;;;5.90;;
55710;SDS011;41612;51.994;5.880;2023-09-18T01:34:56;6.72;;;5.10;;
55710;SDS011;41612;51.994;5.880;2023-09-18T01:37:30;9.57;;;7.80;;
55710;SDS011;41612;51.994;5.880;2023-09-18T01:40:00;7.82;;;5.80;;
55710;SDS011;41612;51.994;5.880;2023-09-18T01:42:32;10.10;;;7.78;;
55710;SDS011;41612;51.994;5.880;2023-09-18T01:45:00;15.32;;;8.23;;
55710;SDS011;41612;51.994;5.880;2023-09-18T01:47:26;11.82;;;8.25;;
55710;SDS011;41612;51.994;5.880;2023-09-18T01:50:02;8.48;;;6.47;;
55710;SDS011;41612;51.994;5.880;2023-09-18T01:52:34;9.93;;;8.23;;
55710;SDS011;41612;51.994;5.880;2023-09-18T01:55:01;16.83;;;10.70;;
55710;SDS011;41612;51.994;5.880;2023-09-18T01:57:33;14.50;;;10.07;;
55710;SDS011;41612;51.994;5.880;2023-09-18T01:59:59;12.82;;;11.15;;
55710;SDS011;41612;51.994;5.880;2023-09-18T02:02:37;14.10;;;11.27;;
55710;SDS011;41612;51.994;5.880;2023-09-18T02:05:06;19.50;;;13.98;;
55710;SDS011;41612;51.994;5.880;2023-09-18T02:07:35;20.20;;;14.18;;
55710;SDS011;41612;51.994;5.880;2023-09-18T02:10:01;13.57;;;11.82;;
55710;SDS011;41612;51.994;5.880;2023-09-18T02:12:33;14.02;;;11.30;;
55710;SDS011;41612;51.994;5.880;2023-09-18T02:15:04;17.42;;;15.52;;
55710;SDS011;41612;51.994;5.880;2023-09-18T02:17:43;11.75;;;10.13;;
55710;SDS011;41612;51.994;5.880;2023-09-18T02:20:11;14.35;;;12.77;;
55710;SDS011;41612;51.994;5.880;2023-09-18T02:22:39;18.38;;;14.93;;
55710;SDS011;41612;51.994;5.880;2023-09-18T02:25:06;17.73;;;14.63;;
55710;SDS011;41612;51.994;5.880;2023-09-18T02:27:33;12.85;;;11.43;;
55710;SDS011;41612;51.994;5.880;2023-09-18T02:30:05;18.63;;;13.00;;
55710;SDS011;41612;51.994;5.880;2023-09-18T02:32:32;11.10;;;9.80;;
55710;SDS011;41612;51.994;5.880;2023-09-18T02:35:04;15.77;;;13.20;;
55710;SDS011;41612;51.994;5.880;2023-09-18T02:37:39;11.35;;;10.18;;
55710;SDS011;41612;51.994;5.880;2023-09-18T02:40:07;12.57;;;11.27;;
55710;SDS011;41612;51.994;5.880;2023-09-18T02:42:34;13.50;;;12.05;;
55710;SDS011;41612;51.994;5.880;2023-09-18T02:45:00;15.82;;;12.32;;
55710;SDS011;41612;51.994;5.880;2023-09-18T02:47:28;12.38;;;10.60;;
55710;SDS011;41612;51.994;5.880;2023-09-18T02:49:57;17.40;;;13.00;;
55710;SDS011;41612;51.994;5.880;2023-09-18T02:52:23;13.05;;;11.18;;
55710;SDS011;41612;51.994;5.880;2023-09-18T02:54:49;17.15;;;14.45;;
55710;SDS011;41612;51.994;5.880;2023-09-18T02:57:16;14.90;;;12.48;;
55710;SDS011;41612;51.994;5.880;2023-09-18T02:59:41;15.35;;;13.68;;
55710;SDS011;41612;51.994;5.880;2023-09-18T03:02:08;20.48;;;15.30;;
55710;SDS011;41612;51.994;5.880;2023-09-18T03:04:34;17.27;;;14.55;;
55710;SDS011;41612;51.994;5.880;2023-09-18T03:07:02;16.48;;;13.98;;
55710;SDS011;41612;51.994;5.880;2023-09-18T03:09:29;17.73;;;12.05;;
55710;SDS011;41612;51.994;5.880;2023-09-18T03:11:55;8.07;;;7.28;;
55710;SDS011;41612;51.994;5.880;2023-09-18T03:14:22;8.55;;;7.60;;
55710;SDS011;41612;51.994;5.880;2023-09-18T03:16:49;10.73;;;9.35;;
55710;SDS011;41612;51.994;5.880;2023-09-18T03:19:15;13.52;;;11.15;;
55710;SDS011;41612;51.994;5.880;2023-09-18T03:21:41;16.60;;;13.77;;
55710;SDS011;41612;51.994;5.880;2023-09-18T03:24:10;17.05;;;13.05;;
55710;SDS011;41612;51.994;5.880;2023-09-18T03:26:35;15.38;;;12.25;;
55710;SDS011;41612;51.994;5.880;2023-09-18T03:29:02;14.82;;;11.95;;
55710;SDS011;41612;51.994;5.880;2023-09-18T03:31:28;14.75;;;12.43;;
55710;SDS011;41612;51.994;5.880;2023-09-18T03:33:55;21.25;;;13.75;;
55710;SDS011;41612;51.994;5.880;2023-09-18T03:36:22;19.00;;;14.00;;
55710;SDS011;41612;51.994;5.880;2023-09-18T03:38:50;14.63;;;12.77;;
55710;SDS011;41612;51.994;5.880;2023-09-18T03:41:16;15.60;;;12.40;;
55710;SDS011;41612;51.994;5.880;2023-09-18T03:43:42;13.23;;;11.80;;
55710;SDS011;41612;51.994;5.880;2023-09-18T03:46:08;15.63;;;12.18;;
55710;SDS011;41612;51.994;5.880;2023-09-18T03:48:43;16.65;;;12.40;;
55710;SDS011;41612;51.994;5.880;2023-09-18T03:51:11;18.27;;;14.80;;
55710;SDS011;41612;51.994;5.880;2023-09-18T03:53:40;19.33;;;14.27;;
55710;SDS011;41612;51.994;5.880;2023-09-18T03:56:06;20.98;;;16.58;;
55710;SDS011;41612;51.994;5.880;2023-09-18T03:58:35;22.58;;;14.50;;
55710;SDS011;41612;51.994;5.880;2023-09-18T04:01:07;21.73;;;15.07;;
55710;SDS011;41612;51.994;5.880;2023-09-18T04:03:37;9.00;;;7.68;;
55710;SDS011;41612;51.994;5.880;2023-09-18T04:06:03;11.95;;;8.75;;
55710;SDS011;41612;51.994;5.880;2023-09-18T04:08:32;16.27;;;12.90;;
55710;SDS011;41612;51.994;5.880;2023-09-18T04:11:01;14.93;;;11.07;;
55710;SDS011;41612;51.994;5.880;2023-09-18T04:13:31;17.45;;;12.55;;
55710;SDS011;41612;51.994;5.880;2023-09-18T04:16:05;15.00;;;12.48;;
55710;SDS011;41612;51.994;5.880;2023-09-18T04:18:31;17.00;;;12.98;;
55710;SDS011;41612;51.994;5.880;2023-09-18T04:20:58;11.02;;;9.80;;
55710;SDS011;41612;51.994;5.880;2023-09-18T04:23:24;24.08;;;14.77;;
55710;SDS011;41612;51.994;5.880;2023-09-18T04:25:53;19.27;;;13.65;;
55710;SDS011;41612;51.994;5.880;2023-09-18T04:28:27;16.85;;;13.05;;
55710;SDS011;41612;51.994;5.880;2023-09-18T04:31:00;16.45;;;12.18;;
55710;SDS011;41612;51.994;5.880;2023-09-18T04:33:31;18.60;;;14.38;;
55710;SDS011;41612;51.994;5.880;2023-09-18T04:35:57;14.77;;;10.30;;
55710;SDS011;41612;51.994;5.880;2023-09-18T04:38:41;13.15;;;11.70;;
55710;SDS011;41612;51.994;5.880;2023-09-18T04:41:08;17.83;;;12.43;;
55710;SDS011;41612;51.994;5.880;2023-09-18T04:43:38;12.30;;;8.73;;
55710;SDS011;41612;51.994;5.880;2023-09-18T04:46:04;19.13;;;10.70;;
55710;SDS011;41612;51.994;5.880;2023-09-18T04:48:33;20.08;;;12.40;;
55710;SDS011;41612;51.994;5.880;2023-09-18T04:50:59;15.73;;;9.50;;
55710;SDS011;41612;51.994;5.880;2023-09-18T04:53:27;17.48;;;10.85;;
55710;SDS011;41612;51.994;5.880;2023-09-18T04:55:53;10.80;;;8.57;;
55710;SDS011;41612;51.994;5.880;2023-09-18T04:58:20;10.32;;;7.50;;
55710;SDS011;41612;51.994;5.880;2023-09-18T05:00:58;8.35;;;6.50;;
55710;SDS011;41612;51.994;5.880;2023-09-18T05:03:26;9.82;;;7.50;;
55710;SDS011;41612;51.994;5.880;2023-09-18T05:05:54;15.45;;;8.35;;
55710;SDS011;41612;51.994;5.880;2023-09-18T05:08:21;13.80;;;8.75;;
55710;SDS011;41612;51.994;5.880;2023-09-18T05:10:49;16.10;;;10.63;;
55710;SDS011;41612;51.994;5.880;2023-09-18T05:13:18;11.75;;;7.32;;
55710;SDS011;41612;51.994;5.880;2023-09-18T05:15:45;10.10;;;6.30;;
55710;SDS011;41612;51.994;5.880;2023-09-18T05:18:13;14.65;;;7.50;;
55710;SDS011;41612;51.994;5.880;2023-09-18T05:20:39;6.90;;;5.40;;
55710;SDS011;41612;51.994;5.880;2023-09-18T05:23:05;15.88;;;8.40;;
55710;SDS011;41612;51.994;5.880;2023-09-18T05:25:31;15.35;;;8.25;;
55710;SDS011;41612;51.994;5.880;2023-09-18T05:28:01;12.63;;;8.30;;
55710;SDS011;41612;51.994;5.880;2023-09-18T05:30:31;9.07;;;7.00;;
55710;SDS011;41612;51.994;5.880;2023-09-18T05:32:59;8.75;;;4.63;;
55710;SDS011;41612;51.994;5.880;2023-09-18T05:35:34;11.18;;;8.05;;
55710;SDS011;41612;51.994;5.880;2023-09-18T05:38:02;8.82;;;6.40;;
55710;SDS011;41612;51.994;5.880;2023-09-18T05:40:29;8.13;;;5.55;;
55710;SDS011;41612;51.994;5.880;2023-09-18T05:42:55;16.33;;;9.93;;
55710;SDS011;41612;51.994;5.880;2023-09-18T05:45:21;15.30;;;10.82;;
55710;SDS011;41612;51.994;5.880;2023-09-18T05:47:53;15.57;;;9.55;;
55710;SDS011;41612;51.994;5.880;2023-09-18T05:50:26;8.70;;;7.53;;
55710;SDS011;41612;51.994;5.880;2023-09-18T05:52:58;12.80;;;8.90;;
55710;SDS011;41612;51.994;5.880;2023-09-18T05:55:26;13.90;;;9.38;;
55710;SDS011;41612;51.994;5.880;2023-09-18T05:57:53;16.80;;;11.63;;
55710;SDS011;41612;51.994;5.880;2023-09-18T06:00:23;6.80;;;5.55;;
55710;SDS011;41612;51.994;5.880;2023-09-18T06:02:53;16.92;;;11.02;;
55710;SDS011;41612;51.994;5.880;2023-09-18T06:05:18;15.55;;;9.73;;
55710;SDS011;41612;51.994;5.880;2023-09-18T06:07:49;16.30;;;11.02;;
55710;SDS011;41612;51.994;5.880;2023-09-18T06:10:17;13.70;;;9.23;;
55710;SDS011;41612;51.994;5.880;2023-09-18T06:12:45;23.73;;;13.25;;
55710;SDS011;41612;51.994;5.880;2023-09-18T06:15:11;14.18;;;10.60;;
55710;SDS011;41612;51.994;5.880;2023-09-18T06:17:40;18.33;;;13.30;;
55710;SDS011;41612;51.994;5.880;2023-09-18T06:20:08;13.27;;;9.50;;
55710;SDS011;41612;51.994;5.880;2023-09-18T06:22:35;13.30;;;10.05;;
55710;SDS011;41612;51.994;5.880;2023-09-18T06:25:05;18.25;;;13.10;;
55710;SDS011;41612;51.994;5.880;2023-09-18T06:27:34;16.38;;;12.23;;
55710;SDS011;41612;51.994;5.880;2023-09-18T06:30:03;11.57;;;8.68;;
55710;SDS011;41612;51.994;5.880;2023-09-18T06:32:29;15.73;;;10.65;;
55710;SDS011;41612;51.994;5.880;2023-09-18T06:34:56;17.05;;;9.98;;
55710;SDS011;41612;51.994;5.880;2023-09-18T06:37:25;20.27;;;13.27;;
55710;SDS011;41612;51.994;5.880;2023-09-18T06:39:51;15.68;;;10.30;;
55710;SDS011;41612;51.994;5.880;2023-09-18T06:42:17;15.05;;;11.07;;
55710;SDS011;41612;51.994;5.880;2023-09-18T06:44:42;14.68;;;11.00;;
55710;SDS011;41612;51.994;5.880;2023-09-18T06:47:08;10.95;;;9.02;;
55710;SDS011;41612;51.994;5.880;2023-09-18T06:49:34;14.15;;;9.75;;
55710;SDS011;41612;51.994;5.880;2023-09-18T06:52:00;12.32;;;8.75;;
55710;SDS011;41612;51.994;5.880;2023-09-18T06:54:27;11.38;;;8.07;;
55710;SDS011;41612;51.994;5.880;2023-09-18T06:56:52;15.30;;;11.07;;
55710;SDS011;41612;51.994;5.880;2023-09-18T06:59:20;13.00;;;7.97;;
55710;SDS011;41612;51.994;5.880;2023-09-18T07:01:46;7.78;;;5.38;;
55710;SDS011;41612;51.994;5.880;2023-09-18T07:04:11;8.45;;;6.70;;
55710;SDS011;41612;51.994;5.880;2023-09-18T07:06:37;8.65;;;6.03;;
55710;SDS011;41612;51.994;5.880;2023-09-18T07:09:04;12.70;;;7.00;;
55710;SDS011;41612;51.994;5.880;2023-09-18T07:11:35;9.32;;;6.70;;
55710;SDS011;41612;51.994;5.880;2023-09-18T07:14:02;9.02;;;5.30;;
55710;SDS011;41612;51.994;5.880;2023-09-18T07:16:31;11.05;;;6.20;;
55710;SDS011;41612;51.994;5.880;2023-09-18T07:18:58;6.93;;;5.00;;
55710;SDS011;41612;51.994;5.880;2023-09-18T07:21:32;8.32;;;4.45;;
55710;SDS011;41612;51.994;5.880;2023-09-18T07:24:00;9.73;;;5.10;;
55710;SDS011;41612;51.994;5.880;2023-09-18T07:26:26;6.80;;;4.45;;
55710;SDS011;41612;51.994;5.880;2023-09-18T07:28:52;7.78;;;4.97;;
55710;SDS011;41612;51.994;5.880;2023-09-18T07:31:19;5.30;;;3.90;;
55710;SDS011;41612;51.994;5.880;2023-09-18T07:33:45;7.22;;;4.63;;
55710;SDS011;41612;51.994;5.880;2023-09-18T07:36:11;5.25;;;3.30;;
55710;SDS011;41612;51.994;5.880;2023-09-18T07:38:39;7.60;;;3.90;;
55710;SDS011;41612;51.994;5.880;2023-09-18T07:41:08;5.55;;;4.18;;
55710;SDS011;41612;51.994;5.880;2023-09-18T07:43:35;10.15;;;4.22;;
55710;SDS011;41612;51.994;5.880;2023-09-18T07:46:01;6.63;;;3.72;;
55710;SDS011;41612;51.994;5.880;2023-09-18T07:48:32;6.50;;;4.60;;
55710;SDS011;41612;51.994;5.880;2023-09-18T07:50:59;10.18;;;4.50;;
55710;SDS011;41612;51.994;5.880;2023-09-18T07:53:25;10.65;;;3.95;;
55710;SDS011;41612;51.994;5.880;2023-09-18T07:55:55;5.88;;;4.15;;
55710;SDS011;41612;51.994;5.880;2023-09-18T07:58:31;4.97;;;3.28;;
55710;SDS011;41612;51.994;5.880;2023-09-18T08:00:58;7.65;;;4.50;;
55710;SDS011;41612;51.994;5.880;2023-09-18T08:03:25;5.30;;;3.60;;
55710;SDS011;41612;51.994;5.880;2023-09-18T08:05:55;7.85;;;3.25;;
55710;SDS011;41612;51.994;5.880;2023-09-18T08:08:21;10.88;;;4.45;;
55710;SDS011;41612;51.994;5.880;2023-09-18T08:10:49;5.22;;;2.72;;
55710;SDS011;41612;51.994;5.880;2023-09-18T08:13:16;7.20;;;3.15;;
55710;SDS011;41612;51.994;5.880;2023-09-18T08:15:44;5.50;;;3.95;;
55710;SDS011;41612;51.994;5.880;2023-09-18T08:18:11;7.78;;;4.00;;
55710;SDS011;41612;51.994;5.880;2023-09-18T08:20:43;10.90;;;3.20;;
55710;SDS011;41612;51.994;5.880;2023-09-18T08:23:10;4.13;;;2.58;;
55710;SDS011;41612;51.994;5.880;2023-09-18T08:25:36;10.40;;;3.67;;
55710;SDS011;41612;51.994;5.880;2023-09-18T08:28:02;5.72;;;2.95;;
55710;SDS011;41612;51.994;5.880;2023-09-18T08:30:29;7.13;;;3.17;;
55710;SDS011;41612;51.994;5.880;2023-09-18T08:32:55;6.72;;;3.50;;
55710;SDS011;41612;51.994;5.880;2023-09-18T08:35:26;6.45;;;2.80;;
55710;SDS011;41612;51.994;5.880;2023-09-18T08:37:57;6.50;;;3.03;;
55710;SDS011;41612;51.994;5.880;2023-09-18T08:40:23;4.28;;;2.25;;
55710;SDS011;41612;51.994;5.880;2023-09-18T08:42:51;3.50;;;2.08;;
55710;SDS011;41612;51.994;5.880;2023-09-18T08:45:34;5.13;;;2.72;;
55710;SDS011;41612;51.994;5.880;2023-09-18T08:48:10;6.30;;;2.80;;
55710;SDS011;41612;51.994;5.880;2023-09-18T08:50:36;4.20;;;2.67;;
55710;SDS011;41612;51.994;5.880;2023-09-18T08:53:11;6.28;;;2.58;;
55710;SDS011;41612;51.994;5.880;2023-09-18T08:55:46;3.97;;;2.83;;
55710;SDS011;41612;51.994;5.880;2023-09-18T08:58:26;4.38;;;2.35;;
55710;SDS011;41612;51.994;5.880;2023-09-18T09:01:00;4.05;;;3.15;;
55710;SDS011;41612;51.994;5.880;2023-09-18T09:03:31;3.72;;;2.33;;
55710;SDS011;41612;51.994;5.880;2023-09-18T09:06:05;8.63;;;2.60;;
55710;SDS011;41612;51.994;5.880;2023-09-18T09:08:36;6.55;;;2.75;;
55710;SDS011;41612;51.994;5.880;2023-09-18T09:11:05;7.80;;;3.13;;
55710;SDS011;41612;51.994;5.880;2023-09-18T09:13:35;5.05;;;2.42;;
55710;SDS011;41612;51.994;5.880;2023-09-18T09:16:03;5.72;;;2.72;;
55710;SDS011;41612;51.994;5.880;2023-09-18T09:18:29;5.10;;;2.80;;
55710;SDS011;41612;51.994;5.880;2023-09-18T09:20:58;5.97;;;2.90;;
55710;SDS011;41612;51.994;5.880;2023-09-18T09:23:53;4.63;;;2.47;;
55710;SDS011;41612;51.994;5.880;2023-09-18T09:26:21;3.53;;;2.47;;
55710;SDS011;41612;51.994;5.880;2023-09-18T09:28:48;3.58;;;1.90;;
55710;SDS011;41612;51.994;5.880;2023-09-18T09:31:26;3.17;;;2.10;;
55710;SDS011;41612;51.994;5.880;2023-09-18T09:33:53;5.03;;;2.10;;
55710;SDS011;41612;51.994;5.880;2023-09-18T09:36:22;6.43;;;2.03;;
55710;SDS011;41612;51.994;5.880;2023-09-18T09:38:54;5.75;;;2.30;;
55710;SDS011;41612;51.994;5.880;2023-09-18T09:41:24;5.43;;;2.78;;
55710;SDS011;41612;51.994;5.880;2023-09-18T09:43:53;5.40;;;2.17;;
55710;SDS011;41612;51.994;5.880;2023-09-18T09:46:23;5.20;;;1.90;;
55710;SDS011;41612;51.994;5.880;2023-09-18T09:48:58;3.92;;;2.30;;
55710;SDS011;41612;51.994;5.880;2023-09-18T09:51:32;5.85;;;2.70;;
55710;SDS011;41612;51.994;5.880;2023-09-18T09:54:01;3.38;;;2.53;;
55710;SDS011;41612;51.994;5.880;2023-09-18T09:56:40;4.35;;;2.42;;
55710;SDS011;41612;51.994;5.880;2023-09-18T09:59:10;4.85;;;2.58;;
55710;SDS011;41612;51.994;5.880;2023-09-18T10:01:37;4.10;;;1.80;;
55710;SDS011;41612;51.994;5.880;2023-09-18T10:04:07;4.70;;;2.17;;
55710;SDS011;41612;51.994;5.880;2023-09-18T10:06:37;8.82;;;2.08;;
55710;SDS011;41612;51.994;5.880;2023-09-18T10:09:06;6.93;;;2.30;;
55710;SDS011;41612;51.994;5.880;2023-09-18T10:11:36;4.07;;;1.70;;
55710;SDS011;41612;51.994;5.880;2023-09-18T10:14:12;3.03;;;1.85;;
55710;SDS011;41612;51.994;5.880;2023-09-18T10:16:41;3.60;;;1.95;;
55710;SDS011;41612;51.994;5.880;2023-09-18T10:19:28;4.90;;;2.00;;
55710;SDS011;41612;51.994;5.880;2023-09-18T10:24:48;3.10;;;1.75;;
55710;SDS011;41612;51.994;5.880;2023-09-18T10:27:18;3.50;;;1.70;;
55710;SDS011;41612;51.994;5.880;2023-09-18T10:29:47;3.38;;;2.10;;
55710;SDS011;41612;51.994;5.880;2023-09-18T10:32:16;14.05;;;1.90;;
55710;SDS011;41612;51.994;5.880;2023-09-18T10:34:45;7.05;;;2.15;;
55710;SDS011;41612;51.994;5.880;2023-09-18T10:37:12;3.80;;;1.98;;
55710;SDS011;41612;51.994;5.880;2023-09-18T10:39:40;9.05;;;2.65;;
55710;SDS011;41612;51.994;5.880;2023-09-18T10:42:09;3.78;;;2.40;;
55710;SDS011;41612;51.994;5.880;2023-09-18T10:44:35;4.45;;;2.78;;
55710;SDS011;41612;51.994;5.880;2023-09-18T10:47:05;4.90;;;2.08;;
55710;SDS011;41612;51.994;5.880;2023-09-18T10:49:33;5.22;;;1.95;;
55710;SDS011;41612;51.994;5.880;2023-09-18T10:52:00;9.70;;;2.70;;
55710;SDS011;41612;51.994;5.880;2023-09-18T10:54:27;4.78;;;2.55;;
55710;SDS011;41612;51.994;5.880;2023-09-18T10:56:55;4.13;;;1.90;;
55710;SDS011;41612;51.994;5.880;2023-09-18T10:59:22;4.53;;;2.40;;
55710;SDS011;41612;51.994;5.880;2023-09-18T11:01:48;3.88;;;1.98;;
55710;SDS011;41612;51.994;5.880;2023-09-18T11:04:17;4.30;;;2.75;;
55710;SDS011;41612;51.994;5.880;2023-09-18T11:09:26;4.75;;;2.10;;
55710;SDS011;41612;51.994;5.880;2023-09-18T11:11:54;7.30;;;2.42;;
55710;SDS011;41612;51.994;5.880;2023-09-18T11:17:29;5.28;;;2.35;;
55710;SDS011;41612;51.994;5.880;2023-09-18T11:22:45;9.70;;;2.90;;
55710;SDS011;41612;51.994;5.880;2023-09-18T11:25:56;10.32;;;2.53;;
55710;SDS011;41612;51.994;5.880;2023-09-18T11:28:22;6.15;;;2.70;;
55710;SDS011;41612;51.994;5.880;2023-09-18T11:30:53;3.65;;;2.33;;
55710;SDS011;41612;51.994;5.880;2023-09-18T11:33:30;5.85;;;2.38;;
55710;SDS011;41612;51.994;5.880;2023-09-18T11:35:56;5.68;;;3.10;;
55710;SDS011;41612;51.994;5.880;2023-09-18T11:38:22;5.82;;;2.95;;
55710;SDS011;41612;51.994;5.880;2023-09-18T11:40:48;5.53;;;2.60;;
55710;SDS011;41612;51.994;5.880;2023-09-18T11:43:21;6.03;;;2.55;;
55710;SDS011;41612;51.994;5.880;2023-09-18T11:45:51;5.43;;;2.22;;
55710;SDS011;41612;51.994;5.880;2023-09-18T11:48:19;7.72;;;3.47;;
55710;SDS011;41612;51.994;5.880;2023-09-18T11:50:46;6.28;;;3.53;;
55710;SDS011;41612;51.994;5.880;2023-09-18T11:53:15;7.13;;;3.13;;
55710;SDS011;41612;51.994;5.880;2023-09-18T11:55:43;5.07;;;2.78;;
55710;SDS011;41612;51.994;5.880;2023-09-18T11:58:09;6.47;;;2.78;;
55710;SDS011;41612;51.994;5.880;2023-09-18T12:00:35;8.05;;;2.70;;
55710;SDS011;41612;51.994;5.880;2023-09-18T12:05:56;6.57;;;2.42;;
55710;SDS011;41612;51.994;5.880;2023-09-18T12:08:24;3.28;;;1.92;;
55710;SDS011;41612;51.994;5.880;2023-09-18T12:10:53;5.15;;;2.40;;
55710;SDS011;41612;51.994;5.880;2023-09-18T12:13:19;4.72;;;2.58;;
55710;SDS011;41612;51.994;5.880;2023-09-18T12:15:46;4.30;;;2.17;;
55710;SDS011;41612;51.994;5.880;2023-09-18T12:18:14;7.07;;;2.42;;
55710;SDS011;41612;51.994;5.880;2023-09-18T12:20:44;4.93;;;2.58;;
55710;SDS011;41612;51.994;5.880;2023-09-18T12:23:12;4.60;;;2.10;;
55710;SDS011;41612;51.994;5.880;2023-09-18T12:25:45;3.28;;;1.98;;
55710;SDS011;41612;51.994;5.880;2023-09-18T12:28:13;3.40;;;1.95;;
55710;SDS011;41612;51.994;5.880;2023-09-18T12:30:40;5.00;;;1.70;;
55710;SDS011;41612;51.994;5.880;2023-09-18T12:33:07;5.32;;;2.25;;
55710;SDS011;41612;51.994;5.880;2023-09-18T12:35:33;4.57;;;2.50;;
55710;SDS011;41612;51.994;5.880;2023-09-18T12:37:59;5.22;;;2.30;;
55710;SDS011;41612;51.994;5.880;2023-09-18T12:40:29;8.55;;;2.65;;
55710;SDS011;41612;51.994;5.880;2023-09-18T12:42:59;4.70;;;2.17;;
55710;SDS011;41612;51.994;5.880;2023-09-18T12:45:25;7.75;;;2.42;;
55710;SDS011;41612;51.994;5.880;2023-09-18T12:47:54;6.15;;;2.45;;
55710;SDS011;41612;51.994;5.880;2023-09-18T12:50:21;5.25;;;2.70;;
55710;SDS011;41612;51.994;5.880;2023-09-18T12:52:47;5.95;;;2.78;;
55710;SDS011;41612;51.994;5.880;2023-09-18T12:55:21;6.65;;;2.42;;
55710;SDS011;41612;51.994;5.880;2023-09-18T12:57:48;4.30;;;2.67;;
55710;SDS011;41612;51.994;5.880;2023-09-18T13:00:16;6.75;;;2.38;;
55710;SDS011;41612;51.994;5.880;2023-09-18T13:02:51;5.20;;;1.73;;
55710;SDS011;41612;51.994;5.880;2023-09-18T13:05:20;4.00;;;2.50;;
55710;SDS011;41612;51.994;5.880;2023-09-18T13:07:54;4.55;;;1.60;;
55710;SDS011;41612;51.994;5.880;2023-09-18T13:10:21;4.47;;;1.95;;
55710;SDS011;41612;51.994;5.880;2023-09-18T13:15:30;4.00;;;1.70;;
55710;SDS011;41612;51.994;5.880;2023-09-18T13:18:10;6.38;;;1.73;;
55710;SDS011;41612;51.994;5.880;2023-09-18T13:20:39;3.50;;;1.83;;
55710;SDS011;41612;51.994;5.880;2023-09-18T13:23:10;6.35;;;2.10;;
55710;SDS011;41612;51.994;5.880;2023-09-18T13:25:37;6.45;;;2.00;;
55710;SDS011;41612;51.994;5.880;2023-09-18T13:28:12;3.40;;;1.80;;
55710;SDS011;41612;51.994;5.880;2023-09-18T13:30:40;4.75;;;1.90;;
55710;SDS011;41612;51.994;5.880;2023-09-18T13:33:15;4.10;;;1.85;;
55710;SDS011;41612;51.994;5.880;2023-09-18T13:38:19;3.58;;;1.77;;
55710;SDS011;41612;51.994;5.880;2023-09-18T13:40:46;5.40;;;1.92;;
55710;SDS011;41612;51.994;5.880;2023-09-18T13:43:13;7.93;;;2.10;;
55710;SDS011;41612;51.994;5.880;2023-09-18T13:45:41;6.05;;;1.88;;
55710;SDS011;41612;51.994;5.880;2023-09-18T13:48:07;4.35;;;1.85;;
55710;SDS011;41612;51.994;5.880;2023-09-18T13:50:33;5.00;;;1.90;;
55710;SDS011;41612;51.994;5.880;2023-09-18T13:53:01;2.70;;;1.50;;
55710;SDS011;41612;51.994;5.880;2023-09-18T13:55:29;4.82;;;2.25;;
55710;SDS011;41612;51.994;5.880;2023-09-18T13:57:55;2.10;;;1.33;;
55710;SDS011;41612;51.994;5.880;2023-09-18T14:00:21;5.18;;;2.22;;
55710;SDS011;41612;51.994;5.880;2023-09-18T14:02:48;3.47;;;1.67;;
55710;SDS011;41612;51.994;5.880;2023-09-18T14:05:13;4.03;;;1.75;;
55710;SDS011;41612;51.994;5.880;2023-09-18T14:07:40;3.60;;;1.63;;
55710;SDS011;41612;51.994;5.880;2023-09-18T14:10:09;2.63;;;1.33;;
55710;SDS011;41612;51.994;5.880;2023-09-18T14:12:36;3.83;;;1.70;;
55710;SDS011;41612;51.994;5.880;2023-09-18T14:15:04;5.63;;;1.70;;
55710;SDS011;41612;51.994;5.880;2023-09-18T14:17:31;3.45;;;1.40;;
55710;SDS011;41612;51.994;5.880;2023-09-18T14:19:57;8.15;;;1.98;;
55710;SDS011;41612;51.994;5.880;2023-09-18T14:22:24;4.55;;;1.65;;
55710;SDS011;41612;51.994;5.880;2023-09-18T14:24:50;7.80;;;1.90;;
55710;SDS011;41612;51.994;5.880;2023-09-18T14:27:15;3.53;;;1.60;;
55710;SDS011;41612;51.994;5.880;2023-09-18T14:29:41;3.33;;;1.70;;
55710;SDS011;41612;51.994;5.880;2023-09-18T14:32:08;4.60;;;1.70;;
55710;SDS011;41612;51.994;5.880;2023-09-18T14:34:34;3.78;;;1.83;;
55710;SDS011;41612;51.994;5.880;2023-09-18T14:37:04;4.75;;;1.70;;
55710;SDS011;41612;51.994;5.880;2023-09-18T14:39:30;4.70;;;1.58;;
55710;SDS011;41612;51.994;5.880;2023-09-18T14:41:56;2.90;;;1.65;;
55710;SDS011;41612;51.994;5.880;2023-09-18T14:44:23;5.57;;;1.80;;
55710;SDS011;41612;51.994;5.880;2023-09-18T14:46:51;3.35;;;1.58;;
55710;SDS011;41612;51.994;5.880;2023-09-18T14:49:18;4.00;;;1.70;;
55710;SDS011;41612;51.994;5.880;2023-09-18T14:51:46;3.33;;;1.65;;
55710;SDS011;41612;51.994;5.880;2023-09-18T14:54:12;5.43;;;2.08;;
55710;SDS011;41612;51.994;5.880;2023-09-18T14:56:39;4.05;;;1.70;;
55710;SDS011;41612;51.994;5.880;2023-09-18T14:59:06;3.40;;;2.20;;
55710;SDS011;41612;51.994;5.880;2023-09-18T15:01:32;5.32;;;1.88;;
55710;SDS011;41612;51.994;5.880;2023-09-18T15:03:58;4.57;;;1.60;;
55710;SDS011;41612;51.994;5.880;2023-09-18T15:06:24;3.08;;;1.52;;
55710;SDS011;41612;51.994;5.880;2023-09-18T15:08:51;6.53;;;2.10;;
55710;SDS011;41612;51.994;5.880;2023-09-18T15:11:19;3.42;;;1.45;;